Time;durP1;ratioP1;P1;durP2;ratioP2;P2;SDS_P1;SDS_P2;PMS_P1;PMS_P2;Temp;Humidity;BMP_temperature;BMP_pressure;BME280_temperature;BME280_humidity;BME280_pressure;Samples;Min_cycle;Max_cycle;Signal;HPM_P1;HPM_P2
2021/03/30 00:00:58;;;;;;;56.35;34.63;;;;;;;9.90;81.82;100092.24;2196563;81;21594;-89
2021/03/30 00:03:59;;;;;;;50.52;32.08;;;;;;;9.89;81.89;100093.21;2196330;81;21295;-88
2021/03/30 00:07:01;;;;;;;52.35;31.48;;;;;;;9.88;81.93;100095.49;2196907;81;21137;-89
2021/03/30 00:10:03;;;;;;;52.23;32.45;;;;;;;9.85;82.07;100089.70;2196912;81;21300;-89
2021/03/30 00:13:04;;;;;;;54.27;35.05;;;;;;;9.82;82.13;100096.53;2196942;81;21177;-86
2021/03/30 00:16:06;;;;;;;55.25;36.05;;;;;;;9.81;82.08;100098.32;2196758;81;21154;-86
2021/03/30 00:19:08;;;;;;;52.10;33.40;;;;;;;9.82;82.09;100100.45;2197055;81;21542;-86
2021/03/30 00:22:09;;;;;;;46.20;33.67;;;;;;;9.82;82.22;100096.53;2224992;78;21265;-90
2021/03/30 00:25:12;;;;;;;50.92;34.65;;;;;;;9.86;82.29;100092.17;2238949;80;21277;-89
2021/03/30 00:28:14;;;;;;;52.23;34.78;;;;;;;9.90;82.28;100084.39;2237051;80;21261;-90
2021/03/30 00:31:16;;;;;;;57.43;36.53;;;;;;;9.93;82.30;100089.81;2236826;80;21301;-89
2021/03/30 00:34:18;;;;;;;54.50;37.15;;;;;;;9.91;82.23;100083.91;2236728;80;21130;-89
2021/03/30 00:37:19;;;;;;;51.90;33.75;;;;;;;9.97;82.25;100086.79;2237093;80;21142;-89
2021/03/30 00:40:21;;;;;;;50.48;33.88;;;;;;;9.97;82.26;100084.17;2237107;80;21293;-89
2021/03/30 00:43:22;;;;;;;54.35;35.50;;;;;;;9.93;82.14;100089.34;2236560;80;21166;-89
2021/03/30 00:46:24;;;;;;;51.10;33.65;;;;;;;9.91;82.27;100090.45;2236802;80;22285;-90
2021/03/30 00:49:25;;;;;;;50.63;34.60;;;;;;;9.90;82.43;100093.55;2236543;80;21123;-89
2021/03/30 00:52:27;;;;;;;55.60;37.17;;;;;;;9.83;82.34;100087.23;2236521;80;21122;-89
2021/03/30 00:55:29;;;;;;;53.35;35.38;;;;;;;9.83;82.55;100094.25;2236783;80;21308;-89
2021/03/30 00:58:30;;;;;;;50.92;35.25;;;;;;;9.87;82.63;100094.30;2236535;80;21131;-89
2021/03/30 01:01:32;;;;;;;57.00;37.23;;;;;;;9.88;82.50;100085.03;2236704;80;21156;-89
2021/03/30 01:04:33;;;;;;;65.45;42.55;;;;;;;9.89;82.57;100085.36;2236525;80;21162;-87
2021/03/30 01:07:35;;;;;;;55.45;36.33;;;;;;;9.88;82.63;100086.34;2236809;80;21119;-89
2021/03/30 01:10:37;;;;;;;47.27;32.08;;;;;;;9.89;82.66;100085.85;2236503;80;21147;-89
2021/03/30 01:13:38;;;;;;;47.13;29.20;;;;;;;9.89;82.65;100090.59;2236754;80;21304;-89
2021/03/30 01:16:40;;;;;;;44.80;28.52;;;;;;;9.88;82.70;100080.28;2236368;80;21127;-89
2021/03/30 01:19:41;;;;;;;47.50;28.70;;;;;;;9.86;82.67;100081.70;2236346;80;21278;-89
2021/03/30 01:22:43;;;;;;;43.48;30.52;;;;;;;9.83;82.92;100082.48;2205258;79;21715;-89
2021/03/30 01:25:44;;;;;;;45.45;28.83;;;;;;;9.80;82.90;100083.59;2196780;81;21307;-86
2021/03/30 01:28:46;;;;;;;44.48;28.40;;;;;;;9.80;82.96;100080.98;2197033;81;21716;-87
2021/03/30 01:31:48;;;;;;;48.42;29.95;;;;;;;9.79;82.93;100081.95;2197019;81;21153;-86
2021/03/30 01:34:49;;;;;;;43.92;29.27;;;;;;;9.84;83.04;100077.10;2196660;81;21142;-87
2021/03/30 01:37:51;;;;;;;43.05;28.50;;;;;;;9.85;83.07;100072.69;2196480;81;21146;-87
2021/03/30 01:40:53;;;;;;;45.40;31.23;;;;;;;9.86;83.06;100078.27;2196790;81;21185;-87
2021/03/30 01:43:55;;;;;;;46.45;28.55;;;;;;;9.86;82.99;100076.95;2196685;81;21170;-87
2021/03/30 01:46:56;;;;;;;47.48;28.85;;;;;;;9.87;83.09;100078.12;2196719;81;21158;-87
2021/03/30 01:49:58;;;;;;;48.87;31.55;;;;;;;9.90;83.13;100070.00;2196746;81;21185;-87
2021/03/30 01:52:59;;;;;;;46.28;28.87;;;;;;;9.93;82.97;100076.73;2200485;81;21245;-86
2021/03/30 01:56:01;;;;;;;44.33;27.70;;;;;;;9.92;83.09;100065.45;2199284;81;21446;-87
2021/03/30 01:59:03;;;;;;;39.92;27.80;;;;;;;9.95;83.06;100069.56;2196789;81;21296;-87
2021/03/30 02:02:04;;;;;;;44.27;28.17;;;;;;;9.95;83.02;100073.48;2197008;81;21319;-87
2021/03/30 02:05:06;;;;;;;40.55;27.60;;;;;;;9.92;83.00;100070.68;2196744;81;21186;-87
2021/03/30 02:08:08;;;;;;;53.35;34.23;;;;;;;9.90;83.14;100071.31;2196862;81;21118;-87
2021/03/30 02:11:09;;;;;;;53.98;34.88;;;;;;;9.96;83.11;100069.41;2196847;81;21582;-87
2021/03/30 02:14:11;;;;;;;49.63;30.62;;;;;;;10.00;83.18;100077.83;2196572;81;21184;-87
2021/03/30 02:17:12;;;;;;;41.42;27.93;;;;;;;10.05;83.07;100082.61;2196624;81;21287;-87
2021/03/30 02:20:14;;;;;;;41.48;27.02;;;;;;;10.08;82.91;100081.86;2196618;81;21649;-87
2021/03/30 02:23:16;;;;;;;48.30;30.30;;;;;;;10.06;82.78;100079.03;2222596;78;21555;-88
2021/03/30 02:26:17;;;;;;;50.12;29.37;;;;;;;10.04;82.95;100070.02;2226231;80;21567;-88
2021/03/30 02:29:20;;;;;;;46.25;29.35;;;;;;;10.04;82.80;100070.02;2225970;80;21132;-87
2021/03/30 02:32:22;;;;;;;42.35;29.52;;;;;;;10.07;83.01;100064.52;2226033;80;21280;-87
2021/03/30 02:35:23;;;;;;;43.75;29.48;;;;;;;10.05;82.99;100062.50;2225955;80;21138;-87
2021/03/30 02:38:25;;;;;;;41.33;28.77;;;;;;;10.12;82.94;100061.45;2226356;80;21151;-87
2021/03/30 02:41:27;;;;;;;43.70;30.25;;;;;;;10.14;82.95;100066.05;2226252;80;21730;-87
2021/03/30 02:44:28;;;;;;;36.13;27.55;;;;;;;10.19;82.93;100065.97;2226466;80;21286;-87
2021/03/30 02:47:30;;;;;;;48.02;29.75;;;;;;;10.19;82.68;100061.22;2226047;80;21301;-88
2021/03/30 02:50:31;;;;;;;45.10;30.12;;;;;;;10.14;82.73;100060.33;2225952;80;21611;-88
2021/03/30 02:53:33;;;;;;;47.25;29.65;;;;;;;10.13;82.76;100060.48;2225915;80;21628;-88
2021/03/30 02:56:35;;;;;;;50.28;31.15;;;;;;;10.12;82.67;100062.77;2226071;80;21313;-88
2021/03/30 02:59:36;;;;;;;56.05;32.63;;;;;;;10.08;82.73;100054.88;2225988;80;21159;-88
2021/03/30 03:02:38;;;;;;;51.92;32.35;;;;;;;10.10;82.90;100051.13;2226133;80;21294;-88
2021/03/30 03:05:40;;;;;;;49.67;31.55;;;;;;;10.13;82.81;100051.32;2226180;80;21277;-88
2021/03/30 03:08:41;;;;;;;50.45;29.42;;;;;;;10.13;82.74;100050.02;2225971;80;21274;-88
2021/03/30 03:11:43;;;;;;;43.42;30.97;;;;;;;10.12;82.80;100052.30;2225897;80;21788;-88
2021/03/30 03:14:44;;;;;;;49.35;32.70;;;;;;;10.08;82.74;100054.38;2225919;80;21285;-88
2021/03/30 03:17:46;;;;;;;50.88;33.33;;;;;;;10.08;82.80;100053.56;2225895;80;21262;-88
2021/03/30 03:20:47;;;;;;;47.48;31.37;;;;;;;10.08;82.83;100057.48;2226144;80;21281;-88
2021/03/30 03:23:49;;;;;;;54.77;38.90;;;;;;;10.05;82.77;100052.52;2197684;80;21138;-88
2021/03/30 03:26:51;;;;;;;54.18;35.80;;;;;;;10.02;82.82;100043.66;2196819;81;21173;-87
2021/03/30 03:29:52;;;;;;;48.13;33.42;;;;;;;10.02;82.90;100041.04;2196650;81;21672;-88
2021/03/30 03:32:54;;;;;;;53.98;32.80;;;;;;;10.03;83.02;100039.59;2196860;81;21264;-88
2021/03/30 03:35:56;;;;;;;44.55;29.85;;;;;;;9.98;82.88;100039.20;2196669;81;21118;-87
2021/03/30 03:38:57;;;;;;;46.73;29.40;;;;;;;9.99;83.07;100044.78;2196888;81;21711;-88
2021/03/30 03:41:59;;;;;;;50.52;31.77;;;;;;;9.97;83.10;100044.11;2196588;81;21264;-87
2021/03/30 03:45:01;;;;;;;51.40;32.85;;;;;;;9.97;83.03;100050.64;2196835;81;21141;-88
2021/03/30 03:48:03;;;;;;;53.50;34.70;;;;;;;9.99;83.09;100063.09;2196795;81;21141;-88
2021/03/30 03:51:04;;;;;;;48.90;33.30;;;;;;;10.00;83.08;100059.99;2196706;81;21188;-88
2021/03/30 03:54:06;;;;;;;72.40;51.02;;;;;;;10.02;83.14;100058.88;2196997;81;21328;-87
2021/03/30 03:57:07;;;;;;;75.30;48.42;;;;;;;10.01;83.05;100066.88;2196891;81;21550;-88
2021/03/30 04:00:09;;;;;;;59.40;38.53;;;;;;;10.00;83.17;100066.53;2196782;81;21126;-87
2021/03/30 04:03:11;;;;;;;56.33;36.17;;;;;;;10.00;83.15;100062.12;2196690;81;21434;-88
2021/03/30 04:06:13;;;;;;;52.20;33.73;;;;;;;9.97;83.15;100058.01;2196768;81;21323;-87
2021/03/30 04:09:16;;;;;;;49.67;32.95;;;;;;;9.95;83.16;100060.41;2196899;81;21161;-88
2021/03/30 04:12:18;;;;;;;51.35;33.20;;;;;;;10.01;83.29;100059.02;2197604;81;21727;-87
2021/03/30 04:15:21;;;;;;;59.53;35.28;;;;;;;10.00;83.15;100054.27;2197083;81;21129;-87
2021/03/30 04:18:22;;;;;;;56.50;33.98;;;;;;;10.02;83.32;100052.81;2196829;81;21738;-87
2021/03/30 04:21:24;;;;;;;54.27;33.70;;;;;;;10.01;83.29;100059.02;2196808;79;21312;-87
2021/03/30 04:24:25;;;;;;;54.08;35.25;;;;;;;10.02;83.31;100064.11;2196819;81;21114;-87
2021/03/30 04:27:27;;;;;;;55.80;36.33;;;;;;;10.01;83.25;100061.16;2196834;81;21102;-87
2021/03/30 04:30:29;;;;;;;58.90;39.85;;;;;;;10.00;83.30;100059.51;2197590;81;21165;-88
2021/03/30 04:33:30;;;;;;;52.30;34.43;;;;;;;10.04;83.34;100062.65;2197454;81;21581;-88
2021/03/30 04:36:32;;;;;;;47.90;32.93;;;;;;;10.05;83.37;100065.61;2196977;81;21161;-88
2021/03/30 04:39:33;;;;;;;52.27;34.73;;;;;;;10.03;83.29;100068.38;2196994;81;21578;-87
2021/03/30 04:42:35;;;;;;;48.80;33.50;;;;;;;10.02;83.39;100070.65;2196655;81;21125;-87
2021/03/30 04:45:36;;;;;;;48.68;32.30;;;;;;;10.11;83.47;100069.79;2197053;81;21165;-88
2021/03/30 04:48:38;;;;;;;48.00;33.65;;;;;;;10.17;83.36;100071.02;2197041;81;21169;-87
2021/03/30 04:51:40;;;;;;;49.13;32.70;;;;;;;10.24;83.37;100085.19;2197273;81;21312;-87
2021/03/30 04:54:41;;;;;;;47.95;31.60;;;;;;;10.26;83.37;100093.75;2196942;81;21704;-88
2021/03/30 04:57:43;;;;;;;45.17;29.72;;;;;;;10.28;83.35;100090.50;2196530;81;21260;-88
2021/03/30 05:00:45;;;;;;;47.35;30.23;;;;;;;10.31;83.33;100091.99;2199877;81;21272;-88
2021/03/30 05:03:46;;;;;;;42.60;30.37;;;;;;;10.29;83.27;100092.63;2200191;81;21588;-88
2021/03/30 05:06:48;;;;;;;45.48;29.48;;;;;;;10.31;83.46;100102.46;2164553;81;21165;-88
2021/03/30 05:09:49;;;;;;;49.38;32.58;;;;;;;10.29;83.34;100098.69;2196795;81;21168;-88
2021/03/30 05:12:51;;;;;;;44.85;30.35;;;;;;;10.24;83.46;100100.89;2196634;81;21118;-88
2021/03/30 05:15:52;;;;;;;48.83;29.82;;;;;;;10.27;83.57;100098.50;2197174;81;21308;-87
2021/03/30 05:18:54;;;;;;;50.50;30.20;;;;;;;10.28;83.53;100100.14;2197141;81;21150;-88
2021/03/30 05:21:55;;;;;;;42.80;29.67;;;;;;;10.32;83.62;100104.94;2203162;80;21119;-87
2021/03/30 05:24:57;;;;;;;46.73;29.20;;;;;;;10.33;83.60;100101.34;2236682;80;21135;-87
2021/03/30 05:27:59;;;;;;;44.85;29.02;;;;;;;10.37;83.67;100101.41;2236841;80;21302;-87
2021/03/30 05:31:00;;;;;;;44.55;29.10;;;;;;;10.39;83.65;100098.64;2236789;80;21171;-88
2021/03/30 05:34:02;;;;;;;54.85;35.63;;;;;;;10.38;83.52;100091.77;2236789;80;21144;-87
2021/03/30 05:37:03;;;;;;;62.15;39.40;;;;;;;10.39;83.67;100096.02;2236794;80;21139;-87
2021/03/30 05:40:05;;;;;;;89.77;48.42;;;;;;;10.40;83.82;100091.95;2236848;80;21304;-87
2021/03/30 05:43:06;;;;;;;104.60;58.35;;;;;;;10.39;83.69;100092.92;2236490;80;21162;-83
2021/03/30 05:46:09;;;;;;;101.75;53.90;;;;;;;10.43;83.76;100090.38;2236709;80;21284;-84
2021/03/30 05:49:10;;;;;;;116.53;58.95;;;;;;;10.43;83.63;100094.78;2237030;80;21312;-87
2021/03/30 05:52:17;;;;;;;65.55;37.73;;;;;;;10.52;83.84;100101.77;2237230;80;21314;-86
2021/03/30 05:55:17;;;;;;;43.30;29.37;;;;;;;10.61;83.79;100110.06;2236730;79;21269;-86
2021/03/30 05:58:18;;;;;;;45.23;31.05;;;;;;;10.71;83.64;100111.31;2236606;80;21147;-88
2021/03/30 06:01:20;;;;;;;47.23;30.90;;;;;;;10.74;83.60;100117.08;2236660;80;21308;-85
2021/03/30 06:04:22;;;;;;;51.10;31.50;;;;;;;10.84;83.71;100107.85;2236771;80;21682;-84
2021/03/30 06:07:23;;;;;;;43.08;31.00;;;;;;;10.97;83.65;100104.86;2236411;80;21138;-85
2021/03/30 06:10:25;;;;;;;44.15;28.32;;;;;;;11.08;83.47;100104.67;2214073;80;21175;-87
2021/03/30 06:13:27;;;;;;;42.15;28.87;;;;;;;11.18;83.25;100104.59;2236417;80;21551;-86
2021/03/30 06:16:30;;;;;;;43.70;29.45;;;;;;;11.26;83.14;100108.61;2236928;80;21328;-86
2021/03/30 06:19:32;;;;;;;47.30;31.55;;;;;;;11.33;83.12;100101.28;2236749;80;21293;-86
2021/03/30 06:22:34;;;;;;;45.90;28.60;;;;;;;11.37;82.80;100121.00;2225075;79;21720;-86
2021/03/30 06:25:35;;;;;;;39.25;27.95;;;;;;;11.43;82.78;100122.20;2197199;81;21161;-86
2021/03/30 06:28:37;;;;;;;44.55;29.10;;;;;;;11.49;82.67;100129.45;2196601;81;21615;-85
2021/03/30 06:31:38;;;;;;;37.93;26.90;;;;;;;11.56;82.57;100127.06;2196604;81;21165;-86
2021/03/30 06:34:41;;;;;;;47.67;32.38;;;;;;;11.57;82.34;100129.52;2196628;81;21165;-85
2021/03/30 06:37:45;;;;;;;50.58;30.52;;;;;;;11.59;82.46;100135.44;2197059;81;21303;-84
2021/03/30 06:40:47;;;;;;;46.23;29.95;;;;;;;11.58;82.33;100134.28;2196993;81;21711;-85
2021/03/30 06:47:11;;;;;;;48.85;32.17;;;;;;;11.61;82.28;100145.31;2197323;81;21169;-85
2021/03/30 06:50:12;;;;;;;45.15;32.90;;;;;;;11.65;82.37;100150.58;2196621;81;21165;-85
2021/03/30 06:53:13;;;;;;;47.33;30.97;;;;;;;11.71;82.03;100154.91;2196636;81;21662;-85
2021/03/30 06:56:15;;;;;;;51.83;36.77;;;;;;;11.71;81.86;100149.66;2199093;79;21131;-86
2021/03/30 06:59:16;;;;;;;54.33;37.63;;;;;;;11.80;82.08;100147.46;2212896;79;21143;-84
2021/03/30 07:02:17;;;;;;;50.43;32.13;;;;;;;11.89;81.95;100147.37;2206859;79;21296;-84
2021/03/30 07:05:19;;;;;;;51.65;32.65;;;;;;;11.99;81.78;100138.08;2210452;79;21311;-81
2021/03/30 07:08:20;;;;;;;47.20;30.37;;;;;;;12.09;81.91;100136.66;2211848;79;21118;-81
2021/03/30 07:11:22;;;;;;;38.45;28.47;;;;;;;12.12;81.78;100146.36;2187557;79;22072;-85
2021/03/30 07:14:23;;;;;;;43.05;28.10;;;;;;;12.17;81.65;100148.05;2182103;81;21535;-83
2021/03/30 07:17:25;;;;;;;43.87;29.07;;;;;;;12.24;81.67;100139.03;2182592;81;21316;-88
2021/03/30 07:20:26;;;;;;;44.23;31.73;;;;;;;12.28;81.63;100135.14;2182941;81;21166;-87
2021/03/30 07:23:28;;;;;;;51.95;39.60;;;;;;;12.23;81.48;100135.59;2182626;78;21517;-84
2021/03/30 07:26:30;;;;;;;49.60;34.13;;;;;;;12.14;81.45;100140.95;2182764;81;21296;-87
2021/03/30 07:29:36;;;;;;;42.55;31.07;;;;;;;12.14;81.80;100141.77;2182714;81;21606;-84
2021/03/30 07:32:35;;;;;;;50.15;33.25;;;;;;;12.22;81.56;100143.13;2181914;81;21201;-87
2021/03/30 07:35:36;;;;;;;43.87;29.10;;;;;;;12.30;81.55;100143.67;2182760;81;21166;-83
2021/03/30 07:38:38;;;;;;;44.15;30.32;;;;;;;12.34;81.48;100138.92;2182451;81;21161;-83
2021/03/30 07:41:39;;;;;;;41.05;29.90;;;;;;;12.38;81.50;100142.41;2182766;82;21110;-84
2021/03/30 07:44:41;;;;;;;37.95;27.35;;;;;;;12.41;81.34;100146.03;2182767;81;21693;-83
2021/03/30 07:47:43;;;;;;;38.88;27.87;;;;;;;12.47;81.43;100153.78;2182616;82;21165;-83
2021/03/30 07:50:44;;;;;;;45.55;30.35;;;;;;;12.55;81.40;100149.06;2182480;81;21641;-87
2021/03/30 07:53:47;;;;;;;38.65;28.90;;;;;;;12.67;81.21;100137.28;2182902;82;21308;-83
2021/03/30 07:56:49;;;;;;;40.90;29.82;;;;;;;12.83;81.22;100138.66;2183013;81;21311;-84
2021/03/30 07:59:51;;;;;;;41.95;27.70;;;;;;;13.01;81.10;100140.69;2182965;81;21303;-83
2021/03/30 08:02:52;;;;;;;42.25;29.12;;;;;;;13.19;80.75;100139.74;2182640;81;21177;-86
2021/03/30 08:05:54;;;;;;;46.28;31.37;;;;;;;13.27;80.41;100143.73;2182662;81;21158;-85
2021/03/30 08:08:56;;;;;;;46.28;33.65;;;;;;;13.43;80.12;100140.28;2185003;81;21260;-85
2021/03/30 08:11:57;;;;;;;42.85;32.00;;;;;;;13.65;79.77;100140.97;2184005;81;21126;-88
2021/03/30 08:14:59;;;;;;;38.15;28.00;;;;;;;13.65;79.77;100140.97;2182994;81;21277;-84
2021/03/30 08:18:01;;;;;;;43.87;29.52;;;;;;;13.78;79.32;100142.59;2182497;81;21165;-83
2021/03/30 08:21:02;;;;;;;37.53;28.02;;;;;;;13.94;79.15;100149.17;2182881;81;21308;-84
2021/03/30 08:24:04;;;;;;;47.53;31.25;;;;;;;14.36;77.77;100140.70;2206776;80;21309;-85
2021/03/30 08:27:06;;;;;;;40.33;29.20;;;;;;;14.36;77.77;100140.70;2222035;80;21119;-84
2021/03/30 08:30:10;;;;;;;49.03;32.93;;;;;;;14.53;77.78;100149.39;2222257;80;21285;-85
2021/03/30 08:33:11;;;;;;;51.08;32.55;;;;;;;14.63;76.74;100149.54;2222157;80;21111;-85
2021/03/30 08:36:13;;;;;;;41.68;26.95;;;;;;;14.67;76.99;100146.05;2222138;80;21154;-89
2021/03/30 08:39:15;;;;;;;40.85;26.77;;;;;;;14.75;76.56;100153.93;2222355;80;21167;-86
2021/03/30 08:42:16;;;;;;;39.48;26.42;;;;;;;14.78;76.54;100153.58;2222304;80;21293;-85
2021/03/30 08:45:19;;;;;;;36.35;25.60;;;;;;;14.88;76.10;100148.09;2222297;80;21297;-89
2021/03/30 08:48:21;;;;;;;38.50;27.62;;;;;;;14.90;75.41;100148.73;2222785;80;21305;-89
2021/03/30 08:51:23;;;;;;;42.62;30.00;;;;;;;14.89;75.32;100149.73;2222413;80;21187;-86
2021/03/30 08:54:24;;;;;;;40.50;25.35;;;;;;;14.65;74.47;100137.00;2222318;80;21293;-86
2021/03/30 08:57:27;;;;;;;33.13;24.47;;;;;;;14.65;74.47;100137.00;2222641;80;21282;-85
2021/03/30 09:00:29;;;;;;;40.12;26.50;;;;;;;14.54;74.93;100147.92;2222317;80;21265;-85
2021/03/30 09:03:31;;;;;;;36.93;26.65;;;;;;;14.54;74.93;100147.92;2222265;80;21154;-84
2021/03/30 09:06:34;;;;;;;43.20;27.70;;;;;;;14.54;75.06;100153.66;2222276;80;21154;-86
2021/03/30 09:09:36;;;;;;;43.92;28.30;;;;;;;14.50;75.10;100159.28;2222252;80;22186;-88
2021/03/30 09:12:38;;;;;;;44.67;28.40;;;;;;;14.46;74.74;100161.12;2222543;80;21325;-86
2021/03/30 09:15:40;;;;;;;38.50;26.97;;;;;;;14.47;75.74;100168.03;2222500;80;21119;-89
2021/03/30 09:18:41;;;;;;;42.00;27.42;;;;;;;14.49;74.32;100168.69;2222368;80;21749;-88
2021/03/30 09:21:43;;;;;;;36.08;25.97;;;;;;;14.58;74.88;100163.71;2222309;80;21274;-89
2021/03/30 09:24:55;;;;;;;40.38;28.00;;;;;;;14.76;73.96;100171.39;2222259;80;21310;-87
2021/03/30 09:27:51;;;;;;;36.33;27.52;;;;;;;14.93;73.77;100168.19;2221529;79;21290;-91
2021/03/30 09:30:53;;;;;;;39.03;27.00;;;;;;;15.23;73.76;100160.76;2222370;80;21615;-88
2021/03/30 09:33:55;;;;;;;38.67;26.55;;;;;;;15.42;72.57;100160.80;2222206;80;21237;-88
2021/03/30 09:36:57;;;;;;;36.70;25.30;;;;;;;15.60;73.29;100164.46;2222293;80;21154;-89
2021/03/30 09:40:00;;;;;;;33.53;26.25;;;;;;;15.78;71.78;100166.83;2222551;80;21278;-88
2021/03/30 09:43:03;;;;;;;33.40;24.75;;;;;;;15.94;71.51;100169.34;2222949;80;21306;-88
2021/03/30 09:46:05;;;;;;;38.35;28.47;;;;;;;16.08;71.17;100163.75;2222725;80;21171;-89
2021/03/30 09:49:09;;;;;;;37.65;28.32;;;;;;;16.24;71.74;100163.59;2222608;80;21318;-89
2021/03/30 09:52:10;;;;;;;35.65;27.85;;;;;;;16.38;70.83;100168.58;2222996;80;21302;-88
2021/03/30 09:55:12;;;;;;;40.15;29.52;;;;;;;16.44;70.47;100166.52;2222813;80;21302;-89
2021/03/30 09:58:15;;;;;;;34.30;26.97;;;;;;;16.53;70.73;100169.38;2222337;80;21269;-88
2021/03/30 10:01:17;;;;;;;38.05;28.32;;;;;;;16.64;70.58;100162.81;2222278;80;21162;-88
2021/03/30 10:04:19;;;;;;;38.78;26.65;;;;;;;16.83;70.73;100156.20;2222249;80;21306;-84
2021/03/30 10:07:20;;;;;;;36.50;26.42;;;;;;;16.91;70.21;100160.03;2222297;80;21642;-87
2021/03/30 10:10:22;;;;;;;31.07;24.80;;;;;;;17.00;69.87;100157.59;2222346;80;21445;-85
2021/03/30 10:13:24;;;;;;;33.63;26.77;;;;;;;17.22;70.01;100153.98;2222174;80;21136;-84
2021/03/30 10:16:25;;;;;;;34.13;26.37;;;;;;;17.42;69.52;100158.16;2222165;80;21131;-85
2021/03/30 10:19:27;;;;;;;37.55;25.68;;;;;;;17.57;69.29;100156.78;2222000;80;21706;-84
2021/03/30 10:22:30;;;;;;;33.73;25.95;;;;;;;17.47;67.43;100154.95;2222371;80;21679;-84
2021/03/30 10:25:32;;;;;;;33.40;26.12;;;;;;;17.48;67.78;100157.92;2222114;80;21179;-85
2021/03/30 10:28:34;;;;;;;37.60;27.75;;;;;;;17.55;68.01;100160.92;2222480;80;21265;-85
2021/03/30 10:31:38;;;;;;;31.12;25.10;;;;;;;17.72;68.09;100158.86;2222118;80;21112;-84
2021/03/30 10:34:39;;;;;;;32.17;24.65;;;;;;;17.80;66.86;100151.30;2222434;79;21710;-85
2021/03/30 10:37:41;;;;;;;37.75;27.22;;;;;;;17.71;65.96;100155.09;2222055;80;21156;-85
2021/03/30 10:40:42;;;;;;;34.03;24.40;;;;;;;17.72;65.33;100148.78;2222143;80;21151;-84
2021/03/30 10:43:44;;;;;;;33.35;24.12;;;;;;;17.59;65.87;100148.13;2222510;80;21154;-85
2021/03/30 10:46:45;;;;;;;33.80;24.80;;;;;;;17.39;66.84;100140.52;2222338;80;21274;-84
2021/03/30 10:49:49;;;;;;;33.02;24.75;;;;;;;17.32;66.88;100141.27;2222406;80;21305;-83
2021/03/30 10:52:51;;;;;;;29.70;24.00;;;;;;;17.42;66.51;100137.48;2222154;80;21163;-83
2021/03/30 10:55:52;;;;;;;33.42;25.55;;;;;;;17.53;66.72;100132.48;2222266;80;21733;-85
2021/03/30 10:58:54;;;;;;;35.20;24.90;;;;;;;17.59;66.10;100129.59;2222591;80;21135;-84
2021/03/30 11:01:55;;;;;;;36.03;24.60;;;;;;;17.54;66.68;100128.02;2222133;80;21273;-84
2021/03/30 11:04:57;;;;;;;33.30;22.62;;;;;;;17.42;65.32;100128.22;2222129;80;21147;-86
2021/03/30 11:07:59;;;;;;;32.67;23.85;;;;;;;17.37;66.44;100123.98;2222498;80;21301;-86
2021/03/30 11:11:01;;;;;;;29.40;22.80;;;;;;;17.68;66.21;100126.31;2221886;80;21143;-84
2021/03/30 11:14:07;;;;;;;29.45;22.85;;;;;;;18.03;65.87;100114.79;2222277;80;21278;-86
2021/03/30 11:17:19;;;;;;;26.77;19.25;;;;;;;18.36;65.22;100118.95;2221888;80;21734;-85
2021/03/30 11:20:21;;;;;;;28.95;20.37;;;;;;;18.41;61.59;100123.67;2221992;80;21587;-84
2021/03/30 11:23:24;;;;;;;31.65;21.93;;;;;;;18.20;62.20;100111.34;2221709;79;21163;-84
2021/03/30 11:26:25;;;;;;;25.95;20.20;;;;;;;18.05;62.96;100108.78;2222152;80;21285;-85
2021/03/30 11:29:35;;;;;;;27.77;20.52;;;;;;;18.14;64.38;100107.62;2222444;80;21266;-84
2021/03/30 11:32:36;;;;;;;34.18;24.00;;;;;;;18.35;63.83;100103.23;2221750;79;21171;-84
2021/03/30 11:35:44;;;;;;;28.05;21.17;;;;;;;18.47;62.50;100105.16;2222427;79;21186;-84
2021/03/30 11:38:40;;;;;;;27.20;19.62;;;;;;;18.58;63.11;100101.63;2221314;79;21175;-83
2021/03/30 11:41:42;;;;;;;25.72;19.85;;;;;;;18.64;62.29;100104.28;2222089;80;21626;-87
2021/03/30 11:44:44;;;;;;;24.87;17.23;;;;;;;18.67;60.44;100105.78;2222596;80;21274;-85
2021/03/30 11:47:45;;;;;;;21.90;18.10;;;;;;;18.70;61.30;100103.53;2222147;80;21131;-84
2021/03/30 11:50:47;;;;;;;23.20;18.82;;;;;;;18.82;61.44;100105.61;2222079;80;21139;-84
2021/03/30 11:53:48;;;;;;;21.80;17.40;;;;;;;18.91;61.06;100095.13;2222512;80;21254;-84
2021/03/30 11:56:50;;;;;;;30.12;17.35;;;;;;;19.03;61.23;100096.19;2222119;80;21170;-84
2021/03/30 11:59:51;;;;;;;25.60;17.05;;;;;;;19.28;60.97;100101.22;2222086;80;21131;-85
2021/03/30 12:02:54;;;;;;;19.52;16.62;;;;;;;19.53;60.00;100096.65;2222353;80;21309;-85
2021/03/30 12:05:56;;;;;;;20.55;15.23;;;;;;;19.66;58.81;100096.70;2222317;80;21147;-85
2021/03/30 12:08:57;;;;;;;21.93;15.35;;;;;;;19.69;58.72;100087.49;2222220;80;21273;-86
2021/03/30 12:11:59;;;;;;;21.90;15.15;;;;;;;19.58;57.74;100087.60;2222204;80;21604;-88
2021/03/30 12:15:01;;;;;;;18.42;14.15;;;;;;;19.51;58.08;100074.80;2222331;80;21307;-86
2021/03/30 12:18:02;;;;;;;19.80;13.58;;;;;;;19.42;57.54;100078.16;2222439;80;21171;-85
2021/03/30 12:21:04;;;;;;;22.22;14.60;;;;;;;19.20;56.43;100083.33;2222903;80;21273;-85
2021/03/30 12:24:05;;;;;;;17.17;13.32;;;;;;;19.03;57.69;100081.59;2222321;79;21707;-84
2021/03/30 12:27:09;;;;;;;19.07;13.75;;;;;;;18.84;56.28;100087.16;2222563;80;21291;-86
2021/03/30 12:30:11;;;;;;;19.95;14.38;;;;;;;18.63;57.13;100076.64;2222179;80;21175;-87
2021/03/30 12:33:12;;;;;;;18.48;13.13;;;;;;;18.54;56.95;100072.02;2222549;80;21313;-85
2021/03/30 12:36:14;;;;;;;20.80;13.98;;;;;;;18.54;56.73;100073.34;2222272;80;21269;-85
2021/03/30 12:39:15;;;;;;;16.90;11.85;;;;;;;18.51;56.27;100065.78;2222869;80;21277;-85
2021/03/30 12:42:17;;;;;;;14.68;12.47;;;;;;;18.44;56.78;100060.45;2211285;80;21733;-90
2021/03/30 12:45:19;;;;;;;21.50;14.83;;;;;;;18.40;56.79;100055.75;2223226;80;21119;-86
2021/03/30 12:48:21;;;;;;;17.73;13.88;;;;;;;18.43;57.72;100060.65;2222668;80;21600;-86
2021/03/30 12:51:22;;;;;;;21.48;14.45;;;;;;;18.47;57.17;100053.95;2211654;80;21305;-89
2021/03/30 12:54:24;;;;;;;19.50;13.78;;;;;;;18.49;56.35;100055.89;2222943;80;21139;-85
2021/03/30 12:57:25;;;;;;;25.55;15.03;;;;;;;18.51;56.71;100055.69;2222999;80;21269;-89
2021/03/30 13:00:27;;;;;;;22.80;13.98;;;;;;;18.59;56.83;100052.36;2222914;80;21710;-88
2021/03/30 13:03:29;;;;;;;16.87;14.00;;;;;;;18.66;56.41;100054.56;2222838;80;21151;-88
2021/03/30 13:06:32;;;;;;;19.98;14.78;;;;;;;18.69;56.34;100049.35;2221499;80;21612;-92
2021/03/30 13:09:34;;;;;;;18.77;14.68;;;;;;;18.69;55.71;100051.50;2222421;80;21176;-86
2021/03/30 13:12:35;;;;;;;17.90;14.55;;;;;;;18.74;55.78;100045.09;2222543;80;21144;-90
2021/03/30 13:15:37;;;;;;;24.07;14.80;;;;;;;18.76;56.14;100040.91;2222444;80;21269;-86
2021/03/30 13:18:39;;;;;;;21.02;15.13;;;;;;;18.81;55.80;100038.97;2222374;80;21290;-86
2021/03/30 13:21:40;;;;;;;20.75;15.98;;;;;;;18.86;55.70;100029.40;2222507;80;21159;-89
2021/03/30 13:24:42;;;;;;;21.27;14.58;;;;;;;18.94;55.87;100032.38;2222324;80;21325;-88
2021/03/30 13:27:43;;;;;;;20.48;13.98;;;;;;;18.92;55.35;100019.28;2222569;80;21269;-91
2021/03/30 13:30:45;;;;;;;17.00;13.22;;;;;;;18.84;55.15;100030.63;2222331;80;21124;-88
2021/03/30 13:33:46;;;;;;;18.15;12.98;;;;;;;18.78;55.30;100033.56;2222278;80;21733;-88
2021/03/30 13:36:48;;;;;;;21.82;14.07;;;;;;;18.80;54.91;100030.70;2222597;80;21135;-89
2021/03/30 13:39:50;;;;;;;18.70;13.62;;;;;;;18.73;55.32;100029.35;2222488;80;21262;-88
2021/03/30 13:42:51;;;;;;;16.20;12.00;;;;;;;18.79;54.99;100024.58;2222235;80;21286;-88
2021/03/30 13:45:53;;;;;;;15.58;12.88;;;;;;;18.90;55.22;100028.47;2222265;80;21714;-86
2021/03/30 13:48:55;;;;;;;15.78;12.78;;;;;;;18.78;55.35;100027.44;2222254;80;21761;-86
2021/03/30 13:51:56;;;;;;;13.05;11.43;;;;;;;18.75;54.58;100029.48;2222208;80;21631;-85